sensor_id;sensor_type;location;lat;lon;timestamp;temperature;humidity
65478;SHT31;53678;39.642;22.430;2023-09-18T00:01:41;22.56;67.46
65478;SHT31;53678;39.642;22.430;2023-09-18T00:04:06;22.55;66.98
65478;SHT31;53678;39.642;22.430;2023-09-18T00:06:32;22.56;67.64
65478;SHT31;53678;39.642;22.430;2023-09-18T00:08:58;22.39;68.07
65478;SHT31;53678;39.642;22.430;2023-09-18T00:11:24;22.41;69.78
65478;SHT31;53678;39.642;22.430;2023-09-18T00:13:50;22.32;71.11
65478;SHT31;53678;39.642;22.430;2023-09-18T00:16:16;22.45;70.50
65478;SHT31;53678;39.642;22.430;2023-09-18T00:18:42;22.49;70.26
65478;SHT31;53678;39.642;22.430;2023-09-18T00:21:10;22.55;70.07
65478;SHT31;53678;39.642;22.430;2023-09-18T00:23:39;22.62;70.04
65478;SHT31;53678;39.642;22.430;2023-09-18T00:26:04;22.65;69.72
65478;SHT31;53678;39.642;22.430;2023-09-18T00:28:30;22.68;69.67
65478;SHT31;53678;39.642;22.430;2023-09-18T00:30:56;22.72;69.79
65478;SHT31;53678;39.642;22.430;2023-09-18T00:33:21;22.83;69.80
65478;SHT31;53678;39.642;22.430;2023-09-18T00:35:48;22.83;68.83
65478;SHT31;53678;39.642;22.430;2023-09-18T00:38:15;22.76;68.65
65478;SHT31;53678;39.642;22.430;2023-09-18T00:40:41;22.70;68.34
65478;SHT31;53678;39.642;22.430;2023-09-18T00:43:07;22.73;68.47
65478;SHT31;53678;39.642;22.430;2023-09-18T00:45:34;22.80;68.75
65478;SHT31;53678;39.642;22.430;2023-09-18T00:48:01;22.76;69.47
65478;SHT31;53678;39.642;22.430;2023-09-18T00:50:27;22.72;69.77
65478;SHT31;53678;39.642;22.430;2023-09-18T00:52:53;22.76;69.70
65478;SHT31;53678;39.642;22.430;2023-09-18T00:55:19;22.73;69.70
65478;SHT31;53678;39.642;22.430;2023-09-18T00:57:45;22.76;69.62
65478;SHT31;53678;39.642;22.430;2023-09-18T01:00:12;22.77;69.38
65478;SHT31;53678;39.642;22.430;2023-09-18T01:02:43;23.13;68.44
65478;SHT31;53678;39.642;22.430;2023-09-18T01:05:08;22.72;69.23
65478;SHT31;53678;39.642;22.430;2023-09-18T01:07:34;21.63;73.95
65478;SHT31;53678;39.642;22.430;2023-09-18T01:10:00;21.22;74.38
65478;SHT31;53678;39.642;22.430;2023-09-18T01:12:55;21.31;74.11
65478;SHT31;53678;39.642;22.430;2023-09-18T01:15:26;21.52;73.52
65478;SHT31;53678;39.642;22.430;2023-09-18T01:17:52;21.33;73.59
65478;SHT31;53678;39.642;22.430;2023-09-18T01:20:18;21.33;73.84
65478;SHT31;53678;39.642;22.430;2023-09-18T01:22:44;21.32;74.13
65478;SHT31;53678;39.642;22.430;2023-09-18T01:25:10;21.45;73.51
65478;SHT31;53678;39.642;22.430;2023-09-18T01:27:35;21.29;74.27
65478;SHT31;53678;39.642;22.430;2023-09-18T01:30:01;21.21;74.44
65478;SHT31;53678;39.642;22.430;2023-09-18T01:32:30;21.31;74.34
65478;SHT31;53678;39.642;22.430;2023-09-18T01:34:57;21.41;74.14
65478;SHT31;53678;39.642;22.430;2023-09-18T01:37:27;21.54;73.42
65478;SHT31;53678;39.642;22.430;2023-09-18T01:39:55;21.67;72.48
65478;SHT31;53678;39.642;22.430;2023-09-18T01:42:26;21.77;71.79
65478;SHT31;53678;39.642;22.430;2023-09-18T01:44:53;21.89;71.66
65478;SHT31;53678;39.642;22.430;2023-09-18T01:47:21;21.91;70.98
65478;SHT31;53678;39.642;22.430;2023-09-18T01:49:48;21.96;70.81
65478;SHT31;53678;39.642;22.430;2023-09-18T01:52:15;22.08;70.26
65478;SHT31;53678;39.642;22.430;2023-09-18T01:54:40;22.10;70.20
65478;SHT31;53678;39.642;22.430;2023-09-18T01:57:06;22.11;70.20
65478;SHT31;53678;39.642;22.430;2023-09-18T01:59:35;22.12;70.13
65478;SHT31;53678;39.642;22.430;2023-09-18T02:02:01;22.17;70.04
65478;SHT31;53678;39.642;22.430;2023-09-18T02:04:32;22.21;69.87
65478;SHT31;53678;39.642;22.430;2023-09-18T02:06:58;22.24;69.64
65478;SHT31;53678;39.642;22.430;2023-09-18T02:09:24;22.28;69.45
65478;SHT31;53678;39.642;22.430;2023-09-18T02:11:49;22.27;69.25
65478;SHT31;53678;39.642;22.430;2023-09-18T02:14:15;22.28;69.39
65478;SHT31;53678;39.642;22.430;2023-09-18T02:16:42;22.25;69.74
65478;SHT31;53678;39.642;22.430;2023-09-18T02:19:14;22.31;70.10
65478;SHT31;53678;39.642;22.430;2023-09-18T02:21:42;22.37;69.37
65478;SHT31;53678;39.642;22.430;2023-09-18T02:24:09;22.34;70.13
65478;SHT31;53678;39.642;22.430;2023-09-18T02:26:35;22.31;70.67
65478;SHT31;53678;39.642;22.430;2023-09-18T02:29:04;22.29;70.79
65478;SHT31;53678;39.642;22.430;2023-09-18T02:31:30;22.37;70.44
65478;SHT31;53678;39.642;22.430;2023-09-18T02:33:56;22.34;71.10
65478;SHT31;53678;39.642;22.430;2023-09-18T02:36:22;22.35;70.87
65478;SHT31;53678;39.642;22.430;2023-09-18T02:38:48;22.41;70.49
65478;SHT31;53678;39.642;22.430;2023-09-18T02:41:14;22.42;70.24
65478;SHT31;53678;39.642;22.430;2023-09-18T02:43:39;22.27;71.37
65478;SHT31;53678;39.642;22.430;2023-09-18T02:46:06;21.67;74.43
65478;SHT31;53678;39.642;22.430;2023-09-18T02:48:32;20.92;79.90
65478;SHT31;53678;39.642;22.430;2023-09-18T02:51:02;20.64;80.96
65478;SHT31;53678;39.642;22.430;2023-09-18T02:53:28;20.55;81.25
65478;SHT31;53678;39.642;22.430;2023-09-18T02:55:57;20.50;81.12
65478;SHT31;53678;39.642;22.430;2023-09-18T02:58:23;20.44;81.19
65478;SHT31;53678;39.642;22.430;2023-09-18T03:00:55;20.51;80.47
65478;SHT31;53678;39.642;22.430;2023-09-18T03:03:26;20.67;80.13
65478;SHT31;53678;39.642;22.430;2023-09-18T03:05:52;20.58;80.86
65478;SHT31;53678;39.642;22.430;2023-09-18T03:08:18;20.61;80.50
65478;SHT31;53678;39.642;22.430;2023-09-18T03:10:44;20.51;80.29
65478;SHT31;53678;39.642;22.430;2023-09-18T03:13:12;20.61;80.33
65478;SHT31;53678;39.642;22.430;2023-09-18T03:15:38;20.77;80.15
65478;SHT31;53678;39.642;22.430;2023-09-18T03:18:06;20.87;79.80
65478;SHT31;53678;39.642;22.430;2023-09-18T03:20:33;20.96;79.39
65478;SHT31;53678;39.642;22.430;2023-09-18T03:23:01;21.04;79.18
65478;SHT31;53678;39.642;22.430;2023-09-18T03:25:28;21.12;78.66
65478;SHT31;53678;39.642;22.430;2023-09-18T03:27:56;21.15;78.66
65478;SHT31;53678;39.642;22.430;2023-09-18T03:30:27;21.15;78.50
65478;SHT31;53678;39.642;22.430;2023-09-18T03:32:53;20.98;78.87
65478;SHT31;53678;39.642;22.430;2023-09-18T03:35:20;20.99;79.06
65478;SHT31;53678;39.642;22.430;2023-09-18T03:37:49;21.13;77.84
65478;SHT31;53678;39.642;22.430;2023-09-18T03:40:17;21.26;77.81
65478;SHT31;53678;39.642;22.430;2023-09-18T03:42:43;21.33;79.57
65478;SHT31;53678;39.642;22.430;2023-09-18T03:45:09;21.29;80.64
65478;SHT31;53678;39.642;22.430;2023-09-18T03:47:37;21.23;80.72
65478;SHT31;53678;39.642;22.430;2023-09-18T03:50:08;21.32;81.06
65478;SHT31;53678;39.642;22.430;2023-09-18T03:52:36;21.19;82.11
65478;SHT31;53678;39.642;22.430;2023-09-18T03:55:02;21.16;82.67
65478;SHT31;53678;39.642;22.430;2023-09-18T03:57:28;21.15;82.92
65478;SHT31;53678;39.642;22.430;2023-09-18T03:59:54;21.05;83.27
65478;SHT31;53678;39.642;22.430;2023-09-18T04:02:23;20.98;83.95
65478;SHT31;53678;39.642;22.430;2023-09-18T04:04:50;21.05;84.34
65478;SHT31;53678;39.642;22.430;2023-09-18T04:07:16;20.95;84.80
65478;SHT31;53678;39.642;22.430;2023-09-18T04:09:43;20.91;85.38
65478;SHT31;53678;39.642;22.430;2023-09-18T04:12:09;20.99;85.52
65478;SHT31;53678;39.642;22.430;2023-09-18T04:14:35;21.01;85.86
65478;SHT31;53678;39.642;22.430;2023-09-18T04:17:01;21.01;86.12
65478;SHT31;53678;39.642;22.430;2023-09-18T04:19:27;20.90;86.56
65478;SHT31;53678;39.642;22.430;2023-09-18T04:21:54;20.98;86.40
65478;SHT31;53678;39.642;22.430;2023-09-18T04:24:20;20.96;86.75
65478;SHT31;53678;39.642;22.430;2023-09-18T04:26:46;21.01;86.49
65478;SHT31;53678;39.642;22.430;2023-09-18T04:29:13;21.15;86.24
65478;SHT31;53678;39.642;22.430;2023-09-18T04:31:39;21.26;85.36
65478;SHT31;53678;39.642;22.430;2023-09-18T04:34:05;21.36;84.55
65478;SHT31;53678;39.642;22.430;2023-09-18T04:36:30;21.74;83.21
65478;SHT31;53678;39.642;22.430;2023-09-18T04:38:57;21.87;82.10
65478;SHT31;53678;39.642;22.430;2023-09-18T04:41:23;22.02;81.47
65478;SHT31;53678;39.642;22.430;2023-09-18T04:43:51;22.21;80.49
65478;SHT31;53678;39.642;22.430;2023-09-18T04:46:17;22.15;81.01
65478;SHT31;53678;39.642;22.430;2023-09-18T04:48:44;22.48;80.62
65478;SHT31;53678;39.642;22.430;2023-09-18T04:51:10;22.97;78.58
65478;SHT31;53678;39.642;22.430;2023-09-18T04:53:37;23.45;77.30
65478;SHT31;53678;39.642;22.430;2023-09-18T04:56:03;23.92;76.47
65478;SHT31;53678;39.642;22.430;2023-09-18T04:58:30;24.26;75.68
65478;SHT31;53678;39.642;22.430;2023-09-18T05:00:58;24.46;74.54
65478;SHT31;53678;39.642;22.430;2023-09-18T05:03:25;24.54;74.70
65478;SHT31;53678;39.642;22.430;2023-09-18T05:05:52;24.34;74.83
65478;SHT31;53678;39.642;22.430;2023-09-18T05:08:18;24.19;75.48
65478;SHT31;53678;39.642;22.430;2023-09-18T05:10:45;24.56;74.38
65478;SHT31;53678;39.642;22.430;2023-09-18T05:13:12;24.82;73.44
65478;SHT31;53678;39.642;22.430;2023-09-18T05:15:38;25.29;72.43
65478;SHT31;53678;39.642;22.430;2023-09-18T05:18:04;25.83;70.52
65478;SHT31;53678;39.642;22.430;2023-09-18T05:20:31;25.29;71.81
65478;SHT31;53678;39.642;22.430;2023-09-18T05:22:59;25.42;71.71
65478;SHT31;53678;39.642;22.430;2023-09-18T05:25:27;25.67;71.57
65478;SHT31;53678;39.642;22.430;2023-09-18T05:28:00;25.79;70.81
65478;SHT31;53678;39.642;22.430;2023-09-18T05:30:29;26.55;68.75
65478;SHT31;53678;39.642;22.430;2023-09-18T05:33:01;26.49;68.82
65478;SHT31;53678;39.642;22.430;2023-09-18T05:35:40;25.79;70.84
65478;SHT31;53678;39.642;22.430;2023-09-18T05:38:06;25.76;70.72
65478;SHT31;53678;39.642;22.430;2023-09-18T05:40:32;25.77;70.82
65478;SHT31;53678;39.642;22.430;2023-09-18T05:42:58;25.54;71.49
65478;SHT31;53678;39.642;22.430;2023-09-18T05:45:24;25.63;71.78
65478;SHT31;53678;39.642;22.430;2023-09-18T05:47:51;25.60;71.69
65478;SHT31;53678;39.642;22.430;2023-09-18T05:50:19;25.97;71.07
65478;SHT31;53678;39.642;22.430;2023-09-18T05:52:48;26.58;69.24
65478;SHT31;53678;39.642;22.430;2023-09-18T05:55:17;26.78;68.82
65478;SHT31;53678;39.642;22.430;2023-09-18T05:57:44;26.25;69.72
65478;SHT31;53678;39.642;22.430;2023-09-18T06:00:10;25.53;71.17
65478;SHT31;53678;39.642;22.430;2023-09-18T06:02:41;24.34;72.87
65478;SHT31;53678;39.642;22.430;2023-09-18T06:05:07;23.74;74.88
65478;SHT31;53678;39.642;22.430;2023-09-18T06:07:37;23.55;75.67
65478;SHT31;53678;39.642;22.430;2023-09-18T06:10:03;23.51;75.99
65478;SHT31;53678;39.642;22.430;2023-09-18T06:12:29;23.11;76.90
65478;SHT31;53678;39.642;22.430;2023-09-18T06:14:55;23.21;76.62
65478;SHT31;53678;39.642;22.430;2023-09-18T06:17:21;23.45;75.95
65478;SHT31;53678;39.642;22.430;2023-09-18T06:19:47;23.50;76.19
65478;SHT31;53678;39.642;22.430;2023-09-18T06:22:13;23.23;76.68
65478;SHT31;53678;39.642;22.430;2023-09-18T06:24:39;23.16;77.11
65478;SHT31;53678;39.642;22.430;2023-09-18T06:27:05;23.35;76.94
65478;SHT31;53678;39.642;22.430;2023-09-18T06:29:32;23.34;76.93
65478;SHT31;53678;39.642;22.430;2023-09-18T06:31:58;23.44;76.96
65478;SHT31;53678;39.642;22.430;2023-09-18T06:34:24;23.82;76.38
65478;SHT31;53678;39.642;22.430;2023-09-18T06:36:50;23.92;76.11
65478;SHT31;53678;39.642;22.430;2023-09-18T06:39:16;23.82;76.86
65478;SHT31;53678;39.642;22.430;2023-09-18T06:41:42;23.47;76.79
65478;SHT31;53678;39.642;22.430;2023-09-18T06:44:11;23.27;77.65
65478;SHT31;53678;39.642;22.430;2023-09-18T06:46:37;23.14;78.14
65478;SHT31;53678;39.642;22.430;2023-09-18T06:49:02;23.24;77.63
65478;SHT31;53678;39.642;22.430;2023-09-18T06:51:29;23.28;77.52
65478;SHT31;53678;39.642;22.430;2023-09-18T06:53:54;23.57;76.99
65478;SHT31;53678;39.642;22.430;2023-09-18T06:56:24;23.38;77.11
65478;SHT31;53678;39.642;22.430;2023-09-18T06:58:50;23.53;76.96
65478;SHT31;53678;39.642;22.430;2023-09-18T07:01:18;23.85;76.36
65478;SHT31;53678;39.642;22.430;2023-09-18T07:03:46;24.06;76.20
65478;SHT31;53678;39.642;22.430;2023-09-18T07:06:13;24.68;74.08
65478;SHT31;53678;39.642;22.430;2023-09-18T07:08:43;24.85;74.04
65478;SHT31;53678;39.642;22.430;2023-09-18T07:11:08;24.37;74.44
65478;SHT31;53678;39.642;22.430;2023-09-18T07:13:34;24.19;76.00
65478;SHT31;53678;39.642;22.430;2023-09-18T07:16:00;24.78;73.93
65478;SHT31;53678;39.642;22.430;2023-09-18T07:18:26;24.94;73.16
65478;SHT31;53678;39.642;22.430;2023-09-18T07:20:52;25.09;72.30
65478;SHT31;53678;39.642;22.430;2023-09-18T07:23:17;25.40;70.79
65478;SHT31;53678;39.642;22.430;2023-09-18T07:25:43;26.11;69.65
65478;SHT31;53678;39.642;22.430;2023-09-18T07:28:10;25.65;70.29
65478;SHT31;53678;39.642;22.430;2023-09-18T07:30:41;25.90;69.59
65478;SHT31;53678;39.642;22.430;2023-09-18T07:33:07;25.67;69.60
65478;SHT31;53678;39.642;22.430;2023-09-18T07:35:33;25.12;70.93
65478;SHT31;53678;39.642;22.430;2023-09-18T07:37:58;25.09;71.40
65478;SHT31;53678;39.642;22.430;2023-09-18T07:40:24;24.77;72.26
65478;SHT31;53678;39.642;22.430;2023-09-18T07:42:50;25.19;70.73
65478;SHT31;53678;39.642;22.430;2023-09-18T07:45:16;25.32;70.46
65478;SHT31;53678;39.642;22.430;2023-09-18T07:47:43;25.56;70.43
65478;SHT31;53678;39.642;22.430;2023-09-18T07:50:09;25.66;69.18
65478;SHT31;53678;39.642;22.430;2023-09-18T07:52:35;25.62;68.97
65478;SHT31;53678;39.642;22.430;2023-09-18T07:55:03;25.88;68.51
65478;SHT31;53678;39.642;22.430;2023-09-18T07:57:28;25.83;67.93
65478;SHT31;53678;39.642;22.430;2023-09-18T07:59:56;25.80;67.30
65478;SHT31;53678;39.642;22.430;2023-09-18T08:02:22;25.42;68.02
65478;SHT31;53678;39.642;22.430;2023-09-18T08:04:48;25.74;68.24
65478;SHT31;53678;39.642;22.430;2023-09-18T08:07:13;25.62;68.61
65478;SHT31;53678;39.642;22.430;2023-09-18T08:09:39;25.93;67.58
65478;SHT31;53678;39.642;22.430;2023-09-18T08:12:06;26.02;66.53
65478;SHT31;53678;39.642;22.430;2023-09-18T08:14:34;26.11;66.50
65478;SHT31;53678;39.642;22.430;2023-09-18T08:17:03;26.44;66.26
65478;SHT31;53678;39.642;22.430;2023-09-18T08:19:31;26.27;66.51
65478;SHT31;53678;39.642;22.430;2023-09-18T08:22:01;26.13;67.39
65478;SHT31;53678;39.642;22.430;2023-09-18T08:24:26;25.98;67.14
65478;SHT31;53678;39.642;22.430;2023-09-18T08:26:52;26.48;66.43
65478;SHT31;53678;39.642;22.430;2023-09-18T08:29:19;26.44;66.56
65478;SHT31;53678;39.642;22.430;2023-09-18T08:31:45;26.45;66.82
65478;SHT31;53678;39.642;22.430;2023-09-18T08:34:11;26.60;66.62
65478;SHT31;53678;39.642;22.430;2023-09-18T08:36:37;26.68;66.06
65478;SHT31;53678;39.642;22.430;2023-09-18T08:39:03;26.89;65.67
65478;SHT31;53678;39.642;22.430;2023-09-18T08:41:32;26.96;66.10
65478;SHT31;53678;39.642;22.430;2023-09-18T08:44:02;26.76;65.53
65478;SHT31;53678;39.642;22.430;2023-09-18T08:46:29;26.66;65.71
65478;SHT31;53678;39.642;22.430;2023-09-18T08:48:57;26.87;65.36
65478;SHT31;53678;39.642;22.430;2023-09-18T08:51:23;27.24;65.18
65478;SHT31;53678;39.642;22.430;2023-09-18T08:53:49;27.50;64.61
65478;SHT31;53678;39.642;22.430;2023-09-18T08:56:17;27.47;64.11
65478;SHT31;53678;39.642;22.430;2023-09-18T08:58:43;27.31;64.19
65478;SHT31;53678;39.642;22.430;2023-09-18T09:01:09;27.38;64.82
65478;SHT31;53678;39.642;22.430;2023-09-18T09:03:42;27.16;63.49
65478;SHT31;53678;39.642;22.430;2023-09-18T09:06:09;26.73;66.10
65478;SHT31;53678;39.642;22.430;2023-09-18T09:08:36;26.63;64.73
65478;SHT31;53678;39.642;22.430;2023-09-18T09:11:03;25.62;66.29
65478;SHT31;53678;39.642;22.430;2023-09-18T09:13:29;25.59;66.44
65478;SHT31;53678;39.642;22.430;2023-09-18T09:15:56;25.59;66.79
65478;SHT31;53678;39.642;22.430;2023-09-18T09:18:23;25.80;67.32
65478;SHT31;53678;39.642;22.430;2023-09-18T09:20:54;25.42;66.75
65478;SHT31;53678;39.642;22.430;2023-09-18T09:23:24;25.49;66.15
65478;SHT31;53678;39.642;22.430;2023-09-18T09:25:50;25.39;67.15
65478;SHT31;53678;39.642;22.430;2023-09-18T09:28:29;25.16;67.50
65478;SHT31;53678;39.642;22.430;2023-09-18T09:31:00;25.53;66.66
65478;SHT31;53678;39.642;22.430;2023-09-18T09:33:30;25.70;66.87
65478;SHT31;53678;39.642;22.430;2023-09-18T09:35:57;25.73;65.79
65478;SHT31;53678;39.642;22.430;2023-09-18T09:38:30;25.79;65.65
65478;SHT31;53678;39.642;22.430;2023-09-18T09:41:00;26.02;66.34
65478;SHT31;53678;39.642;22.430;2023-09-18T09:43:28;26.08;65.41
65478;SHT31;53678;39.642;22.430;2023-09-18T09:45:59;26.08;64.85
65478;SHT31;53678;39.642;22.430;2023-09-18T09:48:25;25.97;65.67
65478;SHT31;53678;39.642;22.430;2023-09-18T09:51:00;25.86;66.35
65478;SHT31;53678;39.642;22.430;2023-09-18T09:53:46;25.76;66.71
65478;SHT31;53678;39.642;22.430;2023-09-18T09:56:16;26.05;66.52
65478;SHT31;53678;39.642;22.430;2023-09-18T09:59:01;26.02;65.90
65478;SHT31;53678;39.642;22.430;2023-09-18T10:01:30;26.48;65.47
65478;SHT31;53678;39.642;22.430;2023-09-18T10:03:56;26.66;65.00
65478;SHT31;53678;39.642;22.430;2023-09-18T10:06:23;26.93;64.63
65478;SHT31;53678;39.642;22.430;2023-09-18T10:08:49;26.45;64.51
65478;SHT31;53678;39.642;22.430;2023-09-18T10:11:15;26.25;65.49
65478;SHT31;53678;39.642;22.430;2023-09-18T10:13:55;25.71;66.61
65478;SHT31;53678;39.642;22.430;2023-09-18T10:16:23;25.53;67.68
65478;SHT31;53678;39.642;22.430;2023-09-18T10:21:35;25.80;67.37
65478;SHT31;53678;39.642;22.430;2023-09-18T10:24:14;26.08;66.40
65478;SHT31;53678;39.642;22.430;2023-09-18T10:26:59;25.94;66.15
65478;SHT31;53678;39.642;22.430;2023-09-18T10:29:26;26.02;65.71
65478;SHT31;53678;39.642;22.430;2023-09-18T10:31:54;26.18;65.22
65478;SHT31;53678;39.642;22.430;2023-09-18T10:34:22;26.08;65.09
65478;SHT31;53678;39.642;22.430;2023-09-18T10:36:50;26.44;65.31
65478;SHT31;53678;39.642;22.430;2023-09-18T10:39:25;26.14;65.89
65478;SHT31;53678;39.642;22.430;2023-09-18T10:41:54;26.08;66.19
65478;SHT31;53678;39.642;22.430;2023-09-18T10:44:21;26.11;65.63
65478;SHT31;53678;39.642;22.430;2023-09-18T10:46:48;26.17;65.46
65478;SHT31;53678;39.642;22.430;2023-09-18T10:49:18;26.05;66.23
65478;SHT31;53678;39.642;22.430;2023-09-18T10:51:48;25.88;66.03
65478;SHT31;53678;39.642;22.430;2023-09-18T10:54:21;25.83;65.76
65478;SHT31;53678;39.642;22.430;2023-09-18T10:56:47;26.07;65.11
65478;SHT31;53678;39.642;22.430;2023-09-18T10:59:14;25.98;65.48
65478;SHT31;53678;39.642;22.430;2023-09-18T11:01:42;26.31;65.48
65478;SHT31;53678;39.642;22.430;2023-09-18T11:04:08;26.51;64.72
65478;SHT31;53678;39.642;22.430;2023-09-18T11:09:24;26.21;65.13
65478;SHT31;53678;39.642;22.430;2023-09-18T11:12:02;26.24;64.66
65478;SHT31;53678;39.642;22.430;2023-09-18T11:14:43;26.02;65.27
65478;SHT31;53678;39.642;22.430;2023-09-18T11:17:32;26.24;65.01
65478;SHT31;53678;39.642;22.430;2023-09-18T11:20:20;26.17;64.90
65478;SHT31;53678;39.642;22.430;2023-09-18T11:23:16;26.22;64.41
65478;SHT31;53678;39.642;22.430;2023-09-18T11:25:43;26.09;64.72
65478;SHT31;53678;39.642;22.430;2023-09-18T11:28:14;26.48;64.42
65478;SHT31;53678;39.642;22.430;2023-09-18T11:30:50;26.31;63.58
65478;SHT31;53678;39.642;22.430;2023-09-18T11:33:30;26.31;63.54
65478;SHT31;53678;39.642;22.430;2023-09-18T11:35:56;26.13;64.76
65478;SHT31;53678;39.642;22.430;2023-09-18T11:38:22;26.31;64.50
65478;SHT31;53678;39.642;22.430;2023-09-18T11:40:51;25.93;65.41
65478;SHT31;53678;39.642;22.430;2023-09-18T11:43:27;25.86;65.52
65478;SHT31;53678;39.642;22.430;2023-09-18T11:45:58;26.04;65.65
65478;SHT31;53678;39.642;22.430;2023-09-18T11:48:26;26.14;65.07
65478;SHT31;53678;39.642;22.430;2023-09-18T11:50:59;26.20;64.86
65478;SHT31;53678;39.642;22.430;2023-09-18T11:53:27;26.29;65.20
65478;SHT31;53678;39.642;22.430;2023-09-18T11:55:53;26.18;64.68
65478;SHT31;53678;39.642;22.430;2023-09-18T11:58:19;26.13;64.76
65478;SHT31;53678;39.642;22.430;2023-09-18T12:00:53;26.09;64.90
65478;SHT31;53678;39.642;22.430;2023-09-18T12:03:21;26.02;64.93
65478;SHT31;53678;39.642;22.430;2023-09-18T12:06:01;26.25;64.77
65478;SHT31;53678;39.642;22.430;2023-09-18T12:08:30;26.44;64.30
65478;SHT31;53678;39.642;22.430;2023-09-18T12:10:57;26.48;64.67
65478;SHT31;53678;39.642;22.430;2023-09-18T12:13:27;26.49;63.85
65478;SHT31;53678;39.642;22.430;2023-09-18T12:16:04;26.14;64.53
65478;SHT31;53678;39.642;22.430;2023-09-18T12:18:32;26.42;64.58
65478;SHT31;53678;39.642;22.430;2023-09-18T12:21:05;26.53;63.98
65478;SHT31;53678;39.642;22.430;2023-09-18T12:23:38;26.68;63.44
65478;SHT31;53678;39.642;22.430;2023-09-18T12:26:04;26.95;63.51
65478;SHT31;53678;39.642;22.430;2023-09-18T12:28:35;26.95;62.96
65478;SHT31;53678;39.642;22.430;2023-09-18T12:31:01;26.76;63.72
65478;SHT31;53678;39.642;22.430;2023-09-18T12:33:36;26.92;63.67
65478;SHT31;53678;39.642;22.430;2023-09-18T12:36:03;26.96;63.02
65478;SHT31;53678;39.642;22.430;2023-09-18T12:38:30;27.02;62.88
65478;SHT31;53678;39.642;22.430;2023-09-18T12:40:57;27.14;62.85
65478;SHT31;53678;39.642;22.430;2023-09-18T12:43:39;26.85;63.37
65478;SHT31;53678;39.642;22.430;2023-09-18T12:46:06;26.99;63.04
65478;SHT31;53678;39.642;22.430;2023-09-18T12:48:36;26.86;63.01
65478;SHT31;53678;39.642;22.430;2023-09-18T12:51:06;26.52;63.94
65478;SHT31;53678;39.642;22.430;2023-09-18T12:53:33;26.36;64.54
65478;SHT31;53678;39.642;22.430;2023-09-18T12:58:31;26.53;63.75
65478;SHT31;53678;39.642;22.430;2023-09-18T13:00:57;26.59;64.01
65478;SHT31;53678;39.642;22.430;2023-09-18T13:03:23;26.71;63.75
65478;SHT31;53678;39.642;22.430;2023-09-18T13:05:49;26.62;63.44
65478;SHT31;53678;39.642;22.430;2023-09-18T13:08:21;26.71;63.79
65478;SHT31;53678;39.642;22.430;2023-09-18T13:10:48;26.58;63.70
65478;SHT31;53678;39.642;22.430;2023-09-18T13:13:24;26.44;63.85
65478;SHT31;53678;39.642;22.430;2023-09-18T13:15:51;26.46;63.99
65478;SHT31;53678;39.642;22.430;2023-09-18T13:18:17;26.51;63.87
65478;SHT31;53678;39.642;22.430;2023-09-18T13:20:44;26.69;63.07
65478;SHT31;53678;39.642;22.430;2023-09-18T13:23:10;26.68;63.26
65478;SHT31;53678;39.642;22.430;2023-09-18T13:25:38;26.45;63.96
65478;SHT31;53678;39.642;22.430;2023-09-18T13:28:07;26.49;63.64
65478;SHT31;53678;39.642;22.430;2023-09-18T13:30:36;26.49;64.01
65478;SHT31;53678;39.642;22.430;2023-09-18T13:33:07;26.51;63.51
65478;SHT31;53678;39.642;22.430;2023-09-18T13:35:34;26.59;63.64
65478;SHT31;53678;39.642;22.430;2023-09-18T13:38:01;26.53;63.09
65478;SHT31;53678;39.642;22.430;2023-09-18T13:40:29;26.53;63.27
65478;SHT31;53678;39.642;22.430;2023-09-18T13:42:55;26.44;63.81
65478;SHT31;53678;39.642;22.430;2023-09-18T13:45:21;26.28;63.97
65478;SHT31;53678;39.642;22.430;2023-09-18T13:47:46;26.09;64.46
65478;SHT31;53678;39.642;22.430;2023-09-18T13:50:15;26.17;63.98
65478;SHT31;53678;39.642;22.430;2023-09-18T13:52:40;26.20;63.94
65478;SHT31;53678;39.642;22.430;2023-09-18T13:55:06;26.38;63.73
65478;SHT31;53678;39.642;22.430;2023-09-18T13:57:34;26.38;63.69
65478;SHT31;53678;39.642;22.430;2023-09-18T14:00:02;26.55;63.76
65478;SHT31;53678;39.642;22.430;2023-09-18T14:02:38;26.42;63.74
65478;SHT31;53678;39.642;22.430;2023-09-18T14:05:05;26.48;63.77
65478;SHT31;53678;39.642;22.430;2023-09-18T14:07:31;26.53;63.31
65478;SHT31;53678;39.642;22.430;2023-09-18T14:09:57;26.51;63.42
65478;SHT31;53678;39.642;22.430;2023-09-18T14:12:24;26.58;63.46
65478;SHT31;53678;39.642;22.430;2023-09-18T14:14:50;26.51;63.60
65478;SHT31;53678;39.642;22.430;2023-09-18T14:17:16;26.49;63.78
65478;SHT31;53678;39.642;22.430;2023-09-18T14:19:43;26.31;63.84
65478;SHT31;53678;39.642;22.430;2023-09-18T14:22:09;26.24;64.15
65478;SHT31;53678;39.642;22.430;2023-09-18T14:24:35;26.31;64.09
65478;SHT31;53678;39.642;22.430;2023-09-18T14:27:01;26.31;63.92
65478;SHT31;53678;39.642;22.430;2023-09-18T14:29:28;26.38;63.71
65478;SHT31;53678;39.642;22.430;2023-09-18T14:31:56;26.39;63.45
65478;SHT31;53678;39.642;22.430;2023-09-18T14:34:22;26.25;63.81
65478;SHT31;53678;39.642;22.430;2023-09-18T14:36:48;26.24;64.04
65478;SHT31;53678;39.642;22.430;2023-09-18T14:39:14;26.24;63.97
65478;SHT31;53678;39.642;22.430;2023-09-18T14:41:40;26.15;64.21
65478;SHT31;53678;39.642;22.430;2023-09-18T14:44:08;26.38;63.96
65478;SHT31;53678;39.642;22.430;2023-09-18T14:46:35;26.29;63.98
65478;SHT31;53678;39.642;22.430;2023-09-18T14:49:06;26.24;63.90
65478;SHT31;53678;39.642;22.430;2023-09-18T14:51:33;26.13;64.10
65478;SHT31;53678;39.642;22.430;2023-09-18T14:54:00;26.20;64.07
65478;SHT31;53678;39.642;22.430;2023-09-18T14:56:26;26.22;63.84
65478;SHT31;53678;39.642;22.430;2023-09-18T14:58:53;26.09;63.82
65478;SHT31;53678;39.642;22.430;2023-09-18T15:01:21;26.15;63.90
65478;SHT31;53678;39.642;22.430;2023-09-18T15:03:47;26.14;63.89
65478;SHT31;53678;39.642;22.430;2023-09-18T15:06:35;26.22;63.51
65478;SHT31;53678;39.642;22.430;2023-09-18T15:09:01;26.21;63.35
65478;SHT31;53678;39.642;22.430;2023-09-18T15:11:28;26.08;63.75
65478;SHT31;53678;39.642;22.430;2023-09-18T15:13:54;26.04;63.91
65478;SHT31;53678;39.642;22.430;2023-09-18T15:16:21;25.93;64.23
65478;SHT31;53678;39.642;22.430;2023-09-18T15:18:47;25.77;64.82
65478;SHT31;53678;39.642;22.430;2023-09-18T15:21:14;25.69;64.78
65478;SHT31;53678;39.642;22.430;2023-09-18T15:23:40;25.65;65.28
65478;SHT31;53678;39.642;22.430;2023-09-18T15:26:06;25.83;64.63
65478;SHT31;53678;39.642;22.430;2023-09-18T15:28:32;25.66;65.17